Terminal Aerodrome Forecast
Issued by NWS Sterling, VA

Current Version | Previous Version | Text Only | Print | Product List | Glossary On
Versions: 1 2 3 4 5 6 7 8 9 10 11 12 13 14 15 16 17 18 19 20 21
000
FTUS41 KLWX 011700 RRA
TAFBWI
TAF
KBWI 011743Z 0118/0224 16007KT P6SM VCSH BKN050 OVC100
     FM012100 16007KT P6SM VCTS BKN050CB OVC100
     FM020100 13006KT 6SM -SHRA BKN050 OVC100
     FM020600 07005KT 5SM -SHRA BR BKN050 OVC100
     FM020800 04007KT 5SM -SHRA BR BKN015 OVC100
     FM021500 04008KT P6SM BKN050 BKN100=

USA.gov is the U.S. government's official web portal to all federal, state and local government web resources and services.